createdAt,value
2018-01-12T00:06:00.059Z,37
2018-01-12T00:15:59.740Z,43
2018-01-12T00:25:59.727Z,37
2018-01-12T00:35:59.742Z,31
2018-01-12T00:46:00.056Z,35
2018-01-12T00:55:59.813Z,34
2018-01-12T01:05:59.940Z,33
2018-01-12T01:16:00.047Z,37
2018-01-12T01:25:59.962Z,34
2018-01-12T01:35:59.735Z,34
2018-01-12T01:46:00.023Z,38
2018-01-12T01:55:59.822Z,34
2018-01-12T02:06:00.117Z,37
2018-01-12T02:15:59.709Z,34
2018-01-12T02:25:59.736Z,37
2018-01-12T02:36:00.014Z,38
2018-01-12T02:45:59.774Z,37
2018-01-12T02:55:59.703Z,37
2018-01-12T03:05:59.836Z,40
2018-01-12T03:15:59.716Z,40
2018-01-12T03:26:00.228Z,41
2018-01-12T03:36:00.042Z,39
2018-01-12T03:45:59.771Z,38
2018-01-12T03:55:59.754Z,39
2018-01-12T04:05:59.707Z,39
2018-01-12T04:15:59.771Z,43
2018-01-12T04:25:59.751Z,45
2018-01-12T04:35:59.777Z,44
2018-01-12T04:45:59.729Z,44
2018-01-12T04:55:59.790Z,40
2018-01-12T05:05:59.845Z,41
2018-01-12T05:16:00.176Z,46
2018-01-12T05:26:00.295Z,47
2018-01-12T05:36:00.338Z,48
2018-01-12T05:45:59.927Z,51
2018-01-12T05:56:00.038Z,43
2018-01-12T06:06:00.585Z,48
2018-01-12T06:15:59.954Z,55
2018-01-12T06:25:59.844Z,55
2018-01-12T06:35:59.841Z,51
2018-01-12T06:45:59.913Z,53
2018-01-12T06:55:59.937Z,57
2018-01-12T07:05:59.941Z,56
2018-01-12T07:15:59.884Z,54
2018-01-12T07:25:59.947Z,53
2018-01-12T07:35:59.931Z,64
2018-01-12T07:45:59.883Z,57
2018-01-12T07:55:59.985Z,60
2018-01-12T08:06:00.022Z,61
2018-01-12T08:15:59.985Z,57
2018-01-12T08:26:00.092Z,58
2018-01-12T08:36:06.057Z,57
2018-01-12T08:46:00.175Z,55
2018-01-12T08:56:26.049Z,60
2018-01-12T09:06:00.094Z,57
2018-01-12T09:16:00.061Z,61
2018-01-12T09:25:59.995Z,55
2018-01-12T09:35:59.937Z,51
2018-01-12T09:46:00.098Z,52
2018-01-12T09:56:00.036Z,40
2018-01-12T10:06:00.108Z,42
2018-01-12T10:16:00.152Z,51
2018-01-12T10:26:00.130Z,49
2018-01-12T10:36:00.128Z,45
2018-01-12T10:46:00.399Z,49
2018-01-12T10:56:01.165Z,56
2018-01-12T11:06:00.399Z,46
2018-01-12T11:16:00.447Z,49
2018-01-12T11:26:01.353Z,57
2018-01-12T11:36:00.386Z,40
2018-01-12T11:46:00.148Z,38
2018-01-12T11:56:00.336Z,43
2018-01-12T12:06:00.132Z,43
2018-01-12T12:16:00.187Z,38
2018-01-12T12:26:00.142Z,39
2018-01-12T12:36:00.155Z,39
2018-01-12T12:46:00.174Z,37
2018-01-12T12:56:00.194Z,38
2018-01-12T13:06:00.225Z,38
2018-01-12T13:16:00.341Z,38
2018-01-12T13:26:00.210Z,39
2018-01-12T13:36:00.277Z,43
2018-01-12T13:46:00.200Z,44
2018-01-12T13:56:01.293Z,49
2018-01-12T14:06:00.232Z,52
2018-01-12T14:16:00.248Z,59
2018-01-12T14:26:00.302Z,58
2018-01-12T14:36:00.242Z,69
2018-01-12T14:46:01.401Z,72
2018-01-12T14:56:00.409Z,75
2018-01-12T15:06:00.336Z,78
2018-01-12T15:16:00.268Z,78
2018-01-12T15:26:00.339Z,79
2018-01-12T15:36:00.329Z,78
2018-01-12T15:46:00.381Z,74
2018-01-12T15:56:00.313Z,75
2018-01-12T16:06:00.405Z,77
2018-01-12T16:16:00.441Z,81
2018-01-12T16:26:00.307Z,88
2018-01-12T16:36:00.402Z,89
2018-01-12T16:46:00.391Z,83
2018-01-12T16:56:00.390Z,91
2018-01-12T17:06:00.355Z,94
2018-01-12T17:16:00.400Z,77
2018-01-12T17:26:00.419Z,100
2018-01-12T17:36:00.464Z,68
2018-01-12T17:46:00.388Z,70
2018-01-12T17:56:00.448Z,68
2018-01-12T18:06:06.265Z,67
2018-01-12T18:16:00.500Z,76
2018-01-12T18:26:00.438Z,68
2018-01-12T18:36:00.476Z,80
2018-01-12T18:46:00.486Z,75
2018-01-12T18:56:00.516Z,80
2018-01-12T19:06:00.475Z,74
2018-01-12T19:16:00.731Z,75
2018-01-12T19:26:00.740Z,72
2018-01-12T19:36:00.671Z,77
2018-01-12T19:46:00.607Z,60
2018-01-12T19:56:00.516Z,64
2018-01-12T20:06:00.565Z,67
2018-01-12T20:16:00.549Z,71
2018-01-12T20:26:00.662Z,77
2018-01-12T20:36:00.657Z,73
2018-01-12T20:46:00.592Z,72
2018-01-12T20:56:00.912Z,72
2018-01-12T21:06:00.539Z,79
2018-01-12T21:16:00.615Z,67
2018-01-12T21:26:00.649Z,71
2018-01-12T21:36:00.585Z,73
2018-01-12T21:46:00.822Z,71
2018-01-12T21:56:00.701Z,68
2018-01-12T22:06:00.662Z,71
2018-01-12T22:16:00.696Z,65
2018-01-12T22:26:00.621Z,76
2018-01-12T22:36:18.575Z,75
2018-01-12T22:46:00.763Z,68
2018-01-12T22:56:00.787Z,61
2018-01-12T23:06:00.715Z,64
2018-01-12T23:16:00.846Z,57
2018-01-12T23:26:00.714Z,58
2018-01-12T23:36:00.797Z,56
2018-01-12T23:46:24.313Z,54
2018-01-12T23:56:34.282Z,54
